createdAt,value
2022-10-07T00:00:30.087Z,99377.03
2022-10-07T00:02:56.669Z,99387.56
2022-10-07T00:05:23.240Z,99386.81
2022-10-07T00:07:49.887Z,99386.47
2022-10-07T00:10:16.403Z,99374.28
2022-10-07T00:12:43.937Z,99382.06
2022-10-07T00:15:10.765Z,99391.19
2022-10-07T00:17:37.324Z,99387.25
2022-10-07T00:20:04.869Z,99363.72
2022-10-07T00:22:31.489Z,99364.25
2022-10-07T00:24:58.006Z,99382.44
2022-10-07T00:27:24.521Z,99379.91
2022-10-07T00:29:53.049Z,99372.84
2022-10-07T00:32:19.602Z,99372.84
2022-10-07T00:34:46.404Z,99357.50
2022-10-07T00:37:13.762Z,99364.78
2022-10-07T00:39:42.308Z,99367.09
2022-10-07T00:42:12.998Z,99356.84
2022-10-07T00:44:42.272Z,99352.53
2022-10-07T00:47:14.552Z,99346.72
2022-10-07T00:49:56.682Z,99346.75
2022-10-07T00:52:27.365Z,99353.25
2022-10-07T00:54:57.048Z,99336.13
2022-10-07T00:57:25.754Z,99338.06
2022-10-07T00:59:55.498Z,99340.22
2022-10-07T01:02:27.296Z,99337.06
2022-10-07T01:04:56.609Z,99323.19
2022-10-07T01:07:23.135Z,99298.34
2022-10-07T01:09:51.538Z,99335.03
2022-10-07T01:12:46.810Z,99328.56
2022-10-07T01:15:37.502Z,99329.41
2022-10-07T01:18:18.346Z,99316.47
2022-10-07T01:21:30.938Z,99314.66
2022-10-07T01:24:25.070Z,99317.84
2022-10-07T01:27:01.147Z,99308.25
2022-10-07T01:29:37.263Z,99309.19
2022-10-07T01:32:19.653Z,99304.81
2022-10-07T01:34:47.757Z,99299.06
2022-10-07T01:37:17.809Z,99290.81
2022-10-07T01:39:51.378Z,99272.78
2022-10-07T01:42:19.972Z,99278.53
2022-10-07T01:44:49.737Z,99273.91
2022-10-07T01:47:17.002Z,99282.03
2022-10-07T01:49:45.097Z,99270.63
2022-10-07T01:52:27.156Z,99282.84
2022-10-07T01:55:29.856Z,99272.94
2022-10-07T01:58:14.456Z,99279.06
2022-10-07T02:00:47.896Z,99277.91
2022-10-07T02:03:22.106Z,99275.13
2022-10-07T02:06:06.380Z,99279.91
2022-10-07T02:08:52.587Z,99277.06
2022-10-07T02:11:25.500Z,99275.25
2022-10-07T02:14:05.893Z,99272.94
2022-10-07T02:16:48.206Z,99272.59
2022-10-07T02:19:23.406Z,99269.66
2022-10-07T02:21:53.109Z,99244.56
2022-10-07T02:24:23.460Z,99258.78
2022-10-07T02:26:53.241Z,99259.56
2022-10-07T02:29:23.134Z,99262.72
2022-10-07T02:31:54.301Z,99249.84
2022-10-07T02:34:24.601Z,99256.78
2022-10-07T02:36:56.092Z,99249.16
2022-10-07T02:39:22.632Z,99242.25
2022-10-07T02:41:59.884Z,99228.38
2022-10-07T02:44:59.710Z,99244.91
2022-10-07T02:47:45.089Z,99244.22
2022-10-07T02:50:16.765Z,99242.91
2022-10-07T02:52:45.751Z,99236.97
2022-10-07T02:55:17.970Z,99236.66
2022-10-07T02:57:47.839Z,99236.66
2022-10-07T03:00:16.645Z,99231.16
2022-10-07T03:02:57.547Z,99235.47
2022-10-07T03:05:33.730Z,99210.19
2022-10-07T03:08:05.065Z,99223.88
2022-10-07T03:10:32.568Z,99230.66
2022-10-07T03:12:59.799Z,99220.44
2022-10-07T03:15:27.384Z,99227.03
2022-10-07T03:17:54.878Z,99222.25
2022-10-07T03:20:21.486Z,99210.22
2022-10-07T03:22:49.049Z,99220.47
2022-10-07T03:25:17.825Z,99215.66
2022-10-07T03:27:44.660Z,99216.16
2022-10-07T03:30:11.850Z,99216.50
2022-10-07T03:32:40.316Z,99202.44
2022-10-07T03:35:08.937Z,99199.97
2022-10-07T03:37:36.345Z,99198.63
2022-10-07T03:40:04.830Z,99192.19
2022-10-07T03:42:31.295Z,99167.91
2022-10-07T03:44:57.843Z,99177.16
2022-10-07T03:47:24.262Z,99186.38
2022-10-07T03:49:51.054Z,99182.94
2022-10-07T03:52:18.684Z,99176.81
2022-10-07T03:54:45.753Z,99177.16
2022-10-07T03:57:31.405Z,99177.31
2022-10-07T04:00:00.129Z,99174.81
2022-10-07T04:02:27.599Z,99183.44
2022-10-07T04:04:55.429Z,99180.28
2022-10-07T04:07:23.168Z,99173.03
2022-10-07T04:09:50.878Z,99171.19
2022-10-07T04:12:17.416Z,99176.03
2022-10-07T04:14:43.835Z,99179.13
2022-10-07T04:17:10.586Z,99158.00
2022-10-07T04:19:37.126Z,99181.97
2022-10-07T04:22:08.404Z,99185.44
2022-10-07T04:24:35.346Z,99164.59
2022-10-07T04:27:04.890Z,99171.19
2022-10-07T04:29:35.417Z,99178.66
2022-10-07T04:32:05.615Z,99174.53
2022-10-07T04:34:32.105Z,99176.84
2022-10-07T04:37:01.131Z,99149.56
2022-10-07T04:39:49.064Z,99163.13
2022-10-07T04:42:34.007Z,99147.09
2022-10-07T04:45:01.087Z,99168.22
2022-10-07T04:47:27.715Z,99152.88
2022-10-07T04:49:55.059Z,99161.28
2022-10-07T04:52:22.143Z,99165.09
2022-10-07T04:54:48.982Z,99157.50
2022-10-07T04:57:15.678Z,99150.56
2022-10-07T04:59:43.781Z,99158.00
2022-10-07T05:02:14.328Z,99151.22
2022-10-07T05:04:42.009Z,99150.06
2022-10-07T05:07:10.109Z,99144.59
2022-10-07T05:09:36.998Z,99138.63
2022-10-07T05:12:04.978Z,99135.50
2022-10-07T05:14:33.596Z,99139.31
2022-10-07T05:17:00.471Z,99128.91
2022-10-07T05:19:31.132Z,99132.88
2022-10-07T05:21:57.770Z,99128.59
2022-10-07T05:24:25.589Z,99126.56
2022-10-07T05:26:52.542Z,99124.56
2022-10-07T05:29:19.578Z,99121.13
2022-10-07T05:31:49.609Z,99128.91
2022-10-07T05:34:20.174Z,99129.22
2022-10-07T05:36:47.241Z,99128.53
2022-10-07T05:39:14.495Z,99123.28
2022-10-07T05:42:01.724Z,99129.72
2022-10-07T05:44:34.574Z,99132.53
2022-10-07T05:47:03.184Z,99133.84
2022-10-07T05:49:30.574Z,99118.78
2022-10-07T05:51:57.489Z,99137.50
2022-10-07T05:54:24.442Z,99134.50
2022-10-07T05:56:52.749Z,99127.06
2022-10-07T05:59:20.628Z,99110.53
2022-10-07T06:01:48.091Z,99128.88
2022-10-07T06:04:19.887Z,99117.31
2022-10-07T06:06:48.293Z,99116.16
2022-10-07T06:09:37.621Z,99099.97
2022-10-07T06:12:30.281Z,99111.34
2022-10-07T06:14:59.252Z,99110.06
2022-10-07T06:17:25.941Z,99079.84
2022-10-07T06:19:55.556Z,99115.34
2022-10-07T06:22:23.201Z,99095.56
2022-10-07T06:24:52.029Z,99113.41
2022-10-07T06:27:18.741Z,99107.63
2022-10-07T06:29:45.228Z,99114.38
2022-10-07T06:32:11.731Z,99111.88
2022-10-07T06:34:39.684Z,99108.25
2022-10-07T06:37:06.219Z,99112.69
2022-10-07T06:39:33.528Z,99110.63
2022-10-07T06:41:59.940Z,99111.53
2022-10-07T06:44:44.900Z,99107.75
2022-10-07T06:47:15.711Z,99114.69
2022-10-07T06:49:44.154Z,99113.84
2022-10-07T06:52:10.978Z,99115.91
2022-10-07T06:54:37.684Z,99116.06
2022-10-07T06:57:26.393Z,99114.38
2022-10-07T06:59:54.885Z,99110.38
2022-10-07T07:02:21.451Z,99118.63
2022-10-07T07:04:47.984Z,99122.03
2022-10-07T07:07:14.702Z,99119.00
2022-10-07T07:09:41.154Z,99113.38
2022-10-07T07:12:10.043Z,99101.28
2022-10-07T07:14:40.195Z,99098.81
2022-10-07T07:17:11.834Z,99103.56
2022-10-07T07:19:39.012Z,99108.34
2022-10-07T07:22:05.988Z,99106.59
2022-10-07T07:24:32.432Z,99103.63
2022-10-07T07:26:58.879Z,99100.56
2022-10-07T07:29:28.328Z,99099.63
2022-10-07T07:32:00.053Z,99094.81
2022-10-07T07:34:31.171Z,99100.88
2022-10-07T07:36:58.507Z,99096.91
2022-10-07T07:39:30.242Z,99111.09
2022-10-07T07:42:04.079Z,99095.50
2022-10-07T07:44:34.126Z,99097.50
2022-10-07T07:47:02.291Z,99094.56
2022-10-07T07:49:31.894Z,99097.91
2022-10-07T07:51:58.928Z,99095.06
2022-10-07T07:54:30.505Z,99087.63
2022-10-07T07:56:57.643Z,99079.13
2022-10-07T07:59:26.585Z,99080.00
2022-10-07T08:01:55.453Z,99045.84
2022-10-07T08:04:23.739Z,99071.19
2022-10-07T08:06:51.069Z,99078.94
2022-10-07T08:09:18.498Z,99064.44
2022-10-07T08:11:47.026Z,99080.13
2022-10-07T08:14:17.181Z,99079.53
2022-10-07T08:16:47.284Z,99078.38
2022-10-07T08:19:13.842Z,99068.38
2022-10-07T08:21:40.638Z,99070.09
2022-10-07T08:24:12.330Z,99073.59
2022-10-07T08:26:39.415Z,99076.09
2022-10-07T08:29:08.701Z,99066.47
2022-10-07T08:31:35.700Z,99069.34
2022-10-07T08:34:04.101Z,99057.53
2022-10-07T08:36:32.775Z,99050.47
2022-10-07T08:39:00.731Z,99041.22
2022-10-07T08:41:57.958Z,99050.50
2022-10-07T08:44:35.880Z,99054.25
2022-10-07T08:47:16.247Z,99050.41
2022-10-07T08:50:07.460Z,99051.06
2022-10-07T08:52:59.976Z,99036.97
2022-10-07T08:55:54.757Z,99033.94
2022-10-07T08:58:51.890Z,99028.47
2022-10-07T09:01:30.911Z,99030.94
2022-10-07T09:04:18.208Z,99020.16
2022-10-07T09:06:55.262Z,99029.25
2022-10-07T09:10:01.245Z,99031.03
2022-10-07T09:12:42.913Z,99021.56
2022-10-07T09:15:21.182Z,99019.38
2022-10-07T09:17:54.233Z,99021.69
2022-10-07T09:20:29.837Z,99022.25
2022-10-07T09:22:59.180Z,99022.13
2022-10-07T09:25:28.746Z,99001.00
2022-10-07T09:27:55.527Z,99008.59
2022-10-07T09:30:24.813Z,99010.00
2022-10-07T09:32:56.485Z,99010.56
2022-10-07T09:35:25.929Z,99002.66
2022-10-07T09:38:05.471Z,98998.63
2022-10-07T09:40:37.004Z,98996.13
2022-10-07T09:43:14.041Z,98995.09
2022-10-07T09:45:46.159Z,98982.28
2022-10-07T09:48:21.256Z,98901.06
2022-10-07T09:50:48.609Z,98987.50
2022-10-07T09:53:29.020Z,98986.19
2022-10-07T09:55:55.561Z,98983.50
2022-10-07T09:58:26.302Z,98982.31
2022-10-07T10:00:57.904Z,98972.72
2022-10-07T10:03:33.270Z,98971.44
2022-10-07T10:06:08.776Z,98967.19
2022-10-07T10:08:44.781Z,98961.22
2022-10-07T10:11:20.460Z,98966.09
2022-10-07T10:13:50.222Z,98970.34
2022-10-07T10:16:26.063Z,98959.78
2022-10-07T10:18:58.871Z,98944.19
2022-10-07T10:21:35.161Z,98964.75
2022-10-07T10:24:06.242Z,98959.50
2022-10-07T10:27:03.760Z,98947.66
2022-10-07T10:29:47.362Z,98944.09
2022-10-07T10:32:41.100Z,98940.91
2022-10-07T10:35:19.390Z,98936.66
2022-10-07T10:38:23.292Z,98931.63
2022-10-07T10:41:05.455Z,98914.50
2022-10-07T10:43:51.118Z,98916.16
2022-10-07T10:46:51.773Z,98914.13
2022-10-07T10:49:37.412Z,98911.59
2022-10-07T10:52:21.017Z,98909.06
2022-10-07T10:55:06.731Z,98900.50
2022-10-07T10:57:42.466Z,98898.34
2022-10-07T11:00:17.090Z,98904.88
2022-10-07T11:03:05.540Z,98899.91
2022-10-07T11:05:36.684Z,98895.41
2022-10-07T11:08:27.518Z,98892.13
2022-10-07T11:10:57.564Z,98885.13
2022-10-07T11:13:37.491Z,98877.47
2022-10-07T11:16:06.889Z,98882.13
2022-10-07T11:18:48.711Z,98878.59
2022-10-07T11:21:34.158Z,98871.56
2022-10-07T11:24:10.152Z,98872.75
2022-10-07T11:26:47.497Z,98833.91
2022-10-07T11:29:31.200Z,98861.59
2022-10-07T11:32:23.849Z,98851.22
2022-10-07T11:34:58.989Z,98850.22
2022-10-07T11:37:43.768Z,98852.88
2022-10-07T11:40:11.954Z,98840.84
2022-10-07T11:42:44.338Z,98821.41
2022-10-07T11:45:19.077Z,98838.84
2022-10-07T11:47:51.840Z,98823.69
2022-10-07T11:50:29.416Z,98830.28
2022-10-07T11:53:03.546Z,98818.47
2022-10-07T11:55:39.770Z,98818.00
2022-10-07T11:58:06.402Z,98820.19
2022-10-07T12:00:35.877Z,98820.22
2022-10-07T12:03:31.327Z,98810.00
2022-10-07T12:06:07.781Z,98801.91
2022-10-07T12:08:39.188Z,98795.53
2022-10-07T12:11:12.398Z,98793.28
2022-10-07T12:13:48.556Z,98789.03
2022-10-07T12:16:23.899Z,98790.00
2022-10-07T12:19:06.346Z,98779.22
2022-10-07T12:22:02.827Z,98774.78
2022-10-07T12:24:31.466Z,98770.06
2022-10-07T12:27:19.833Z,98756.56
2022-10-07T12:29:53.379Z,98763.63
2022-10-07T12:32:52.928Z,98756.13
2022-10-07T12:35:34.276Z,98748.06
2022-10-07T12:38:14.273Z,98742.97
2022-10-07T12:40:44.239Z,98739.00
2022-10-07T12:43:24.857Z,98729.34
2022-10-07T12:45:52.251Z,98722.69
2022-10-07T12:48:22.473Z,98721.69
2022-10-07T12:50:51.876Z,98719.84
2022-10-07T12:53:27.911Z,98721.47
2022-10-07T12:55:56.293Z,98712.22
2022-10-07T12:58:49.127Z,98711.19
2022-10-07T13:01:41.161Z,98676.56
2022-10-07T13:04:26.302Z,98703.63
2022-10-07T13:07:23.393Z,98705.84
2022-10-07T13:09:59.433Z,98705.25
2022-10-07T13:12:37.983Z,98696.41
2022-10-07T13:15:42.605Z,98690.44
2022-10-07T13:18:20.737Z,98692.38
2022-10-07T13:21:02.640Z,98688.34
2022-10-07T13:23:30.983Z,98685.34
2022-10-07T13:26:00.095Z,98683.19
2022-10-07T13:28:35.831Z,98678.34
2022-10-07T13:31:24.128Z,98671.06
2022-10-07T13:33:52.031Z,98667.00
2022-10-07T13:36:26.400Z,98595.25
2022-10-07T13:39:15.923Z,98662.69
2022-10-07T13:41:47.953Z,98638.88
2022-10-07T13:44:18.359Z,98647.56
2022-10-07T13:47:01.121Z,98639.44
2022-10-07T13:49:30.855Z,98643.22
2022-10-07T13:52:01.507Z,98637.81
2022-10-07T13:54:32.594Z,98639.75
2022-10-07T13:57:02.293Z,98621.88
2022-10-07T13:59:29.502Z,98622.16
2022-10-07T14:02:01.201Z,98624.28
2022-10-07T14:04:31.363Z,98625.91
2022-10-07T14:07:12.900Z,98615.91
2022-10-07T14:09:44.387Z,98607.00
2022-10-07T14:12:18.400Z,98607.50
2022-10-07T14:14:48.217Z,98598.06
2022-10-07T14:17:40.959Z,98598.06
2022-10-07T14:20:29.788Z,98597.22
2022-10-07T14:22:58.772Z,98591.31
2022-10-07T14:25:28.012Z,98585.66
2022-10-07T14:28:07.434Z,98594.00
2022-10-07T14:30:56.955Z,98585.66
2022-10-07T14:33:54.636Z,98591.06
2022-10-07T14:36:22.099Z,98577.53
2022-10-07T14:38:51.086Z,98576.72
2022-10-07T14:41:20.392Z,98568.88
2022-10-07T14:43:48.784Z,98558.31
2022-10-07T14:46:18.220Z,98562.31
2022-10-07T14:48:45.644Z,98565.56
2022-10-07T14:51:12.815Z,98525.78
2022-10-07T14:53:41.977Z,98558.75
2022-10-07T14:56:22.288Z,98559.88
2022-10-07T14:58:48.749Z,98561.44
2022-10-07T15:01:15.218Z,98552.25
2022-10-07T15:03:41.759Z,98558.41
2022-10-07T15:06:08.308Z,98557.31
2022-10-07T15:08:34.735Z,98557.06
2022-10-07T15:11:01.411Z,98557.63
2022-10-07T15:13:29.075Z,98556.28
2022-10-07T15:15:55.710Z,98548.72
2022-10-07T15:18:22.332Z,98546.78
2022-10-07T15:20:55.250Z,98545.16
2022-10-07T15:23:21.757Z,98544.06
2022-10-07T15:25:48.149Z,98539.19
2022-10-07T15:28:15.351Z,98541.84
2022-10-07T15:30:41.886Z,98536.69
2022-10-07T15:33:10.205Z,98525.84
2022-10-07T15:35:37.465Z,98525.56
2022-10-07T15:38:04.004Z,98526.91
2022-10-07T15:40:31.148Z,98520.13
2022-10-07T15:42:58.129Z,98527.56
2022-10-07T15:45:25.485Z,98525.13
2022-10-07T15:47:56.803Z,98532.09
2022-10-07T15:50:27.394Z,98518.03
2022-10-07T15:52:54.674Z,98518.03
2022-10-07T15:55:21.106Z,98523.16
2022-10-07T15:57:47.712Z,98519.63
2022-10-07T16:00:15.032Z,98520.69
2022-10-07T16:02:41.561Z,98529.09
2022-10-07T16:05:09.632Z,98519.06
2022-10-07T16:07:36.492Z,98521.50
2022-10-07T16:10:03.537Z,98525.25
2022-10-07T16:12:29.937Z,98516.31
2022-10-07T16:14:56.346Z,98510.66
2022-10-07T16:17:22.788Z,98509.28
2022-10-07T16:19:49.218Z,98513.00
2022-10-07T16:22:16.710Z,98512.72
2022-10-07T16:24:43.190Z,98507.03
2022-10-07T16:27:09.623Z,98515.31
2022-10-07T16:29:54.855Z,98520.66
2022-10-07T16:32:21.276Z,98530.53
2022-10-07T16:34:48.228Z,98529.94
2022-10-07T16:37:15.304Z,98524.78
2022-10-07T16:39:41.920Z,98524.72
2022-10-07T16:42:08.611Z,98512.31
2022-10-07T16:44:35.315Z,98507.84
2022-10-07T16:47:01.846Z,98502.34
2022-10-07T16:49:30.107Z,98524.78
2022-10-07T16:51:57.376Z,98528.78
2022-10-07T16:54:24.345Z,98524.72
2022-10-07T16:56:52.420Z,98514.88
2022-10-07T16:59:23.147Z,98505.03
2022-10-07T17:01:53.457Z,98529.34
2022-10-07T17:04:20.109Z,98476.06
2022-10-07T17:06:47.018Z,98538.28
2022-10-07T17:09:16.329Z,98522.91
2022-10-07T17:11:42.809Z,98532.06
2022-10-07T17:14:18.221Z,98527.88
2022-10-07T17:16:50.195Z,98525.78
2022-10-07T17:19:19.129Z,98524.41
2022-10-07T17:21:52.508Z,98523.19
2022-10-07T17:24:21.315Z,98516.75
2022-10-07T17:26:48.669Z,98527.88
2022-10-07T17:29:18.169Z,98539.63
2022-10-07T17:31:48.156Z,98529.63
2022-10-07T17:34:16.013Z,98530.44
2022-10-07T17:36:43.732Z,98532.69
2022-10-07T17:39:10.382Z,98524.53
2022-10-07T17:41:38.732Z,98533.00
2022-10-07T17:44:10.281Z,98507.06
2022-10-07T17:46:40.849Z,98498.91
2022-10-07T17:49:09.718Z,98512.91
2022-10-07T17:51:37.275Z,98539.66
2022-10-07T17:54:05.912Z,98534.06
2022-10-07T17:56:33.008Z,98540.50
2022-10-07T17:58:59.541Z,98541.81
2022-10-07T18:01:31.682Z,98542.34
2022-10-07T18:04:04.275Z,98545.81
2022-10-07T18:06:35.121Z,98540.34
2022-10-07T18:09:04.581Z,98541.53
2022-10-07T18:11:50.262Z,98529.31
2022-10-07T18:14:35.577Z,98539.97
2022-10-07T18:17:02.712Z,98540.94
2022-10-07T18:19:29.594Z,98551.69
2022-10-07T18:21:56.539Z,98545.13
2022-10-07T18:24:27.446Z,98540.59
2022-10-07T18:26:58.948Z,98521.97
2022-10-07T18:29:30.199Z,98549.13
2022-10-07T18:31:56.856Z,98534.44
2022-10-07T18:34:23.764Z,98500.09
2022-10-07T18:36:55.177Z,98531.19
2022-10-07T18:39:22.910Z,98529.44
2022-10-07T18:41:49.375Z,98529.09
2022-10-07T18:44:15.938Z,98504.06
2022-10-07T18:46:42.328Z,98434.44
2022-10-07T18:49:09.329Z,98525.63
2022-10-07T18:51:35.794Z,98524.31
2022-10-07T18:54:04.579Z,98533.28
2022-10-07T18:56:31.061Z,98519.88
2022-10-07T18:58:58.265Z,98525.13
2022-10-07T19:01:27.753Z,98527.69
2022-10-07T19:04:01.076Z,98528.97
2022-10-07T19:06:30.284Z,98527.69
2022-10-07T19:08:59.093Z,98491.78
2022-10-07T19:11:26.389Z,98509.94
2022-10-07T19:13:58.141Z,98524.97
2022-10-07T19:16:29.368Z,98527.66
2022-10-07T19:18:59.193Z,98528.09
2022-10-07T19:21:26.256Z,98527.38
2022-10-07T19:23:54.813Z,98530.19
2022-10-07T19:26:23.860Z,98527.53
2022-10-07T19:28:52.399Z,98519.50
2022-10-07T19:31:24.818Z,98515.88
2022-10-07T19:33:56.260Z,98495.09
2022-10-07T19:36:23.393Z,98506.19
2022-10-07T19:38:53.502Z,98513.44
2022-10-07T19:41:22.819Z,98522.13
2022-10-07T19:43:51.266Z,98522.38
2022-10-07T19:46:19.390Z,98509.44
2022-10-07T19:48:46.041Z,98516.88
2022-10-07T19:51:19.497Z,98502.22
2022-10-07T19:53:47.466Z,98513.34
2022-10-07T19:56:15.687Z,98499.16
2022-10-07T19:58:47.860Z,98488.59
2022-10-07T20:01:17.134Z,98508.84
2022-10-07T20:03:43.958Z,98444.56
2022-10-07T20:06:11.205Z,98505.94
2022-10-07T20:08:40.246Z,98494.94
2022-10-07T20:11:07.431Z,98468.53
2022-10-07T20:13:38.207Z,98490.81
2022-10-07T20:16:09.360Z,98503.78
2022-10-07T20:18:37.549Z,98501.22
2022-10-07T20:21:10.737Z,98484.38
2022-10-07T20:23:40.334Z,98463.38
2022-10-07T20:26:09.911Z,98495.91
2022-10-07T20:28:39.314Z,98495.03
2022-10-07T20:31:08.362Z,98505.09
2022-10-07T20:33:39.287Z,98506.16
2022-10-07T20:36:07.406Z,98507.78
2022-10-07T20:38:54.606Z,98493.84
2022-10-07T20:41:40.934Z,98493.09
2022-10-07T20:44:07.654Z,98492.28
2022-10-07T20:46:34.616Z,98465.81
2022-10-07T20:49:02.524Z,98497.00
2022-10-07T20:51:30.344Z,98494.53
2022-10-07T20:53:56.734Z,98501.84
2022-10-07T20:56:23.153Z,98489.84
2022-10-07T20:58:49.555Z,98490.00
2022-10-07T21:01:16.196Z,98489.19
2022-10-07T21:03:42.684Z,98491.66
2022-10-07T21:06:09.283Z,98482.13
2022-10-07T21:08:35.736Z,98472.94
2022-10-07T21:11:03.632Z,98472.28
2022-10-07T21:13:31.421Z,98456.09
2022-10-07T21:15:58.225Z,98474.13
2022-10-07T21:18:26.472Z,98445.66
2022-10-07T21:20:56.925Z,98473.16
2022-10-07T21:23:23.939Z,98476.78
2022-10-07T21:25:51.801Z,98471.88
2022-10-07T21:28:19.247Z,98437.28
2022-10-07T21:30:55.486Z,98461.97
2022-10-07T21:33:22.198Z,98434.69
2022-10-07T21:35:48.624Z,98467.28
2022-10-07T21:38:15.702Z,98487.03
2022-10-07T21:40:42.321Z,98476.44
2022-10-07T21:43:08.757Z,98475.16
2022-10-07T21:45:35.217Z,98471.53
2022-10-07T21:48:01.871Z,98450.31
2022-10-07T21:50:28.313Z,98467.75
2022-10-07T21:52:54.745Z,98473.97
2022-10-07T21:55:21.114Z,98471.69
2022-10-07T21:57:47.517Z,98453.81
2022-10-07T22:00:15.840Z,98463.69
2022-10-07T22:02:42.278Z,98456.94
2022-10-07T22:05:11.335Z,98459.31
2022-10-07T22:07:56.316Z,98462.94
2022-10-07T22:10:22.781Z,98463.28
2022-10-07T22:12:49.495Z,98461.88
2022-10-07T22:15:17.080Z,98458.88
2022-10-07T22:17:43.457Z,98464.22
2022-10-07T22:20:10.188Z,98442.03
2022-10-07T22:22:37.396Z,98450.22
2022-10-07T22:25:04.378Z,98448.25
2022-10-07T22:27:30.832Z,98446.28
2022-10-07T22:29:57.219Z,98454.78
2022-10-07T22:32:26.709Z,98448.63
2022-10-07T22:35:11.890Z,98450.56
2022-10-07T22:37:41.039Z,98438.69
2022-10-07T22:40:08.330Z,98450.72
2022-10-07T22:42:35.333Z,98419.41
2022-10-07T22:45:01.765Z,98451.22
2022-10-07T22:47:28.306Z,98447.91
2022-10-07T22:49:55.125Z,98440.53
2022-10-07T22:52:22.358Z,98443.19
2022-10-07T22:54:52.475Z,98423.19
2022-10-07T22:57:22.214Z,98418.44
2022-10-07T22:59:49.171Z,98421.63
2022-10-07T23:02:17.942Z,98434.00
2022-10-07T23:04:44.367Z,98433.34
2022-10-07T23:07:10.789Z,98430.16
2022-10-07T23:09:37.227Z,98427.78
2022-10-07T23:12:05.923Z,98430.09
2022-10-07T23:14:35.407Z,98428.59
2022-10-07T23:17:01.994Z,98419.91
2022-10-07T23:19:28.618Z,98426.06
2022-10-07T23:21:55.840Z,98430.22
2022-10-07T23:24:22.362Z,98400.41
2022-10-07T23:26:48.727Z,98418.56
2022-10-07T23:29:15.714Z,98418.88
2022-10-07T23:31:45.056Z,98412.69
2022-10-07T23:34:11.528Z,98417.75
2022-10-07T23:36:40.595Z,98417.53
2022-10-07T23:39:07.011Z,98419.28
2022-10-07T23:41:33.487Z,98412.34
2022-10-07T23:44:02.107Z,98413.69
2022-10-07T23:46:32.740Z,98397.88
2022-10-07T23:48:59.471Z,98405.25
2022-10-07T23:51:32.250Z,98411.03
2022-10-07T23:54:00.537Z,98411.41
2022-10-07T23:56:27.043Z,98402.13
2022-10-07T23:58:53.572Z,98390.47
